createdAt,value
2017-08-15T00:02:08.994Z,21.77
2017-08-15T00:04:37.336Z,21.73
2017-08-15T00:07:05.823Z,21.63
2017-08-15T00:09:35.415Z,21.74
2017-08-15T00:12:03.793Z,21.76
2017-08-15T00:14:32.199Z,21.73
2017-08-15T00:17:01.045Z,21.52
2017-08-15T00:19:29.444Z,21.57
2017-08-15T00:21:57.936Z,21.59
2017-08-15T00:24:26.996Z,21.55
2017-08-15T00:26:55.411Z,21.54
2017-08-15T00:29:23.892Z,21.84
2017-08-15T00:31:52.656Z,21.78
2017-08-15T00:34:21.105Z,21.62
2017-08-15T00:36:49.543Z,21.68
2017-08-15T00:39:18.675Z,21.68
2017-08-15T00:41:47.222Z,21.51
2017-08-15T00:44:16.438Z,21.45
2017-08-15T00:46:45.503Z,21.24
2017-08-15T00:49:13.884Z,21.35
2017-08-15T00:51:42.376Z,21.22
2017-08-15T00:54:11.085Z,21.23
2017-08-15T00:56:40.365Z,21.29
2017-08-15T00:59:08.836Z,21.13
2017-08-15T01:01:37.705Z,21.16
2017-08-15T01:04:06.158Z,21.16
2017-08-15T01:06:34.711Z,21.16
2017-08-15T01:09:04.126Z,21.32
2017-08-15T01:11:32.484Z,21.28
2017-08-15T01:14:00.883Z,21.37
2017-08-15T01:16:29.613Z,21.38
2017-08-15T01:18:58.016Z,21.49
2017-08-15T01:21:26.447Z,21.63
2017-08-15T01:23:55.540Z,21.64
2017-08-15T01:26:23.975Z,21.63
2017-08-15T01:28:52.469Z,21.55
2017-08-15T01:31:21.378Z,21.70
2017-08-15T01:33:50.750Z,21.79
2017-08-15T01:36:19.164Z,21.57
2017-08-15T01:38:48.042Z,21.55
2017-08-15T01:41:16.440Z,21.63
2017-08-15T01:43:44.925Z,21.36
2017-08-15T01:46:13.974Z,21.26
2017-08-15T01:48:42.472Z,21.24
2017-08-15T01:51:10.886Z,21.30
2017-08-15T01:53:39.611Z,21.40
2017-08-15T01:56:08.093Z,21.28
2017-08-15T01:58:36.449Z,21.03
2017-08-15T02:01:05.343Z,21.10
2017-08-15T02:03:33.694Z,21.24
2017-08-15T02:06:02.800Z,21.05
2017-08-15T02:08:32.634Z,21.05
2017-08-15T02:11:00.979Z,21.02
2017-08-15T02:13:30.096Z,21.01
2017-08-15T02:15:58.884Z,21.05
2017-08-15T02:18:27.235Z,21.07
2017-08-15T02:20:56.386Z,20.95
2017-08-15T02:23:25.116Z,20.74
2017-08-15T02:25:53.479Z,20.87
2017-08-15T02:28:21.853Z,20.85
2017-08-15T02:30:51.433Z,20.71
2017-08-15T02:33:19.808Z,20.71
2017-08-15T02:35:48.185Z,20.74
2017-08-15T02:38:17.066Z,21.09
2017-08-15T02:40:45.412Z,21.02
2017-08-15T02:43:15.519Z,20.87
2017-08-15T02:45:44.293Z,21.09
2017-08-15T02:48:12.695Z,21.12
2017-08-15T02:50:41.045Z,21.04
2017-08-15T02:53:09.757Z,21.20
2017-08-15T02:55:38.192Z,21.18
2017-08-15T02:58:06.548Z,21.12
2017-08-15T03:00:35.327Z,21.21
2017-08-15T03:03:04.448Z,21.06
2017-08-15T03:05:32.778Z,20.86
2017-08-15T03:08:01.557Z,20.96
2017-08-15T03:10:29.905Z,20.99
2017-08-15T03:12:58.265Z,20.90
2017-08-15T03:15:27.066Z,20.95
2017-08-15T03:17:55.431Z,20.84
2017-08-15T03:20:23.791Z,20.64
2017-08-15T03:22:53.259Z,20.64
2017-08-15T03:25:21.611Z,20.40
2017-08-15T03:27:49.989Z,20.54
2017-08-15T03:30:18.660Z,20.73
2017-08-15T03:32:47.082Z,20.90
2017-08-15T03:35:15.477Z,20.61
2017-08-15T03:37:44.519Z,20.51
2017-08-15T03:40:12.900Z,20.74
2017-08-15T03:42:41.310Z,20.72
2017-08-15T03:45:10.024Z,20.80
2017-08-15T03:47:38.517Z,20.71
2017-08-15T03:50:07.708Z,20.90
2017-08-15T03:52:36.717Z,20.95
2017-08-15T03:55:05.111Z,20.84
2017-08-15T03:57:33.581Z,20.86
2017-08-15T04:00:02.450Z,20.76
2017-08-15T04:02:30.862Z,20.85
2017-08-15T04:04:59.288Z,20.90
2017-08-15T04:07:28.203Z,20.75
2017-08-15T04:09:56.571Z,20.65
2017-08-15T04:12:24.977Z,20.63
2017-08-15T04:14:55.127Z,20.83
2017-08-15T04:17:23.516Z,20.93
2017-08-15T04:19:51.867Z,20.93
2017-08-15T04:22:20.563Z,20.86
2017-08-15T04:24:49.020Z,20.99
2017-08-15T04:27:18.312Z,21.11
2017-08-15T04:29:47.277Z,20.63
2017-08-15T04:32:15.788Z,20.67
2017-08-15T04:34:44.298Z,20.54
2017-08-15T04:37:13.383Z,20.88
2017-08-15T04:39:41.910Z,21.03
2017-08-15T04:42:10.327Z,20.87
2017-08-15T04:44:39.318Z,21.17
2017-08-15T04:47:07.720Z,21.33
2017-08-15T04:49:36.108Z,21.52
2017-08-15T04:52:05.148Z,21.13
2017-08-15T04:54:33.512Z,21.40
2017-08-15T04:57:01.924Z,21.74
2017-08-15T04:59:30.827Z,22.00
2017-08-15T05:01:59.170Z,22.19
2017-08-15T05:04:27.571Z,22.32
2017-08-15T05:06:56.690Z,22.43
2017-08-15T05:09:25.896Z,22.50
2017-08-15T05:11:54.273Z,22.59
2017-08-15T05:14:22.958Z,22.67
2017-08-15T05:16:52.980Z,22.70
2017-08-15T05:19:21.483Z,22.56
2017-08-15T05:21:50.168Z,22.14
2017-08-15T05:24:18.556Z,22.46
2017-08-15T05:26:47.022Z,22.55
2017-08-15T05:29:15.730Z,22.52
2017-08-15T05:31:44.093Z,22.68
2017-08-15T05:34:12.454Z,22.35
2017-08-15T05:36:42.091Z,22.38
2017-08-15T05:39:10.449Z,22.52
2017-08-15T05:41:39.582Z,22.47
2017-08-15T05:44:08.354Z,22.52
2017-08-15T05:46:36.723Z,22.27
2017-08-15T05:49:05.116Z,22.28
2017-08-15T05:51:34.081Z,22.37
2017-08-15T05:54:03.216Z,22.76
2017-08-15T05:56:31.590Z,22.51
2017-08-15T05:59:00.467Z,22.74
2017-08-15T06:01:28.850Z,22.29
2017-08-15T06:03:57.212Z,22.09
2017-08-15T06:06:25.966Z,22.06
2017-08-15T06:08:54.362Z,22.19
2017-08-15T06:11:22.717Z,21.95
2017-08-15T06:13:51.672Z,21.73
2017-08-15T06:16:20.080Z,21.93
2017-08-15T06:18:48.516Z,22.10
2017-08-15T06:21:17.290Z,21.63
2017-08-15T06:23:46.415Z,21.92
2017-08-15T06:26:14.783Z,22.03
2017-08-15T06:28:43.544Z,22.24
2017-08-15T06:31:11.908Z,22.26
2017-08-15T06:33:40.229Z,21.95
2017-08-15T06:36:08.912Z,22.26
2017-08-15T06:38:37.282Z,22.27
2017-08-15T06:41:05.649Z,22.11
2017-08-15T06:43:34.328Z,22.03
2017-08-15T06:46:02.713Z,22.12
2017-08-15T06:48:31.089Z,22.13
2017-08-15T06:51:00.019Z,22.07
2017-08-15T06:53:28.392Z,22.48
2017-08-15T06:55:56.763Z,22.57
2017-08-15T06:58:25.653Z,22.69
2017-08-15T07:00:54.007Z,22.33
2017-08-15T07:03:22.372Z,22.30
2017-08-15T07:05:51.143Z,21.96
2017-08-15T07:08:19.491Z,22.08
2017-08-15T07:10:47.854Z,22.34
2017-08-15T07:13:16.518Z,22.37
2017-08-15T07:15:44.866Z,22.49
2017-08-15T07:18:13.204Z,22.59
2017-08-15T07:20:42.214Z,22.48
2017-08-15T07:23:10.577Z,22.81
2017-08-15T07:25:38.946Z,23.16
2017-08-15T07:28:07.654Z,23.74
2017-08-15T07:30:35.986Z,23.80
2017-08-15T07:33:04.327Z,23.86
2017-08-15T07:35:32.980Z,23.50
2017-08-15T07:38:01.332Z,23.23
2017-08-15T07:40:29.672Z,23.30
2017-08-15T07:42:58.532Z,23.24
2017-08-15T07:45:26.869Z,23.42
2017-08-15T07:47:55.228Z,23.54
2017-08-15T07:50:23.992Z,23.73
2017-08-15T07:52:52.347Z,24.03
2017-08-15T07:55:20.772Z,23.94
2017-08-15T07:57:49.537Z,23.93
2017-08-15T08:00:17.913Z,24.08
2017-08-15T08:02:46.274Z,24.54
2017-08-15T08:05:15.031Z,24.25
2017-08-15T08:07:43.544Z,24.17
2017-08-15T08:10:11.969Z,24.37
2017-08-15T08:12:40.653Z,24.48
2017-08-15T08:15:09.008Z,24.95
2017-08-15T08:17:37.381Z,24.81
2017-08-15T08:20:06.113Z,24.51
2017-08-15T08:22:34.488Z,25.02
2017-08-15T08:25:02.871Z,24.98
2017-08-15T08:27:31.667Z,24.89
2017-08-15T08:30:00.054Z,25.00
2017-08-15T08:32:28.424Z,24.95
2017-08-15T08:34:57.101Z,25.20
2017-08-15T08:37:25.535Z,25.29
2017-08-15T08:39:54.837Z,25.44
2017-08-15T08:42:23.517Z,25.65
2017-08-15T08:44:51.873Z,26.18
2017-08-15T08:47:20.244Z,26.29
2017-08-15T08:49:49.140Z,26.28
2017-08-15T08:52:17.515Z,26.30
2017-08-15T08:54:45.926Z,26.40
2017-08-15T08:57:14.839Z,26.87
2017-08-15T08:59:43.205Z,27.27
2017-08-15T09:02:11.575Z,27.08
2017-08-15T09:04:40.513Z,27.37
2017-08-15T09:07:08.879Z,27.82
2017-08-15T09:09:37.336Z,28.28
2017-08-15T09:12:06.166Z,28.23
2017-08-15T09:14:34.535Z,28.14
2017-08-15T09:17:02.893Z,28.31
2017-08-15T09:19:31.541Z,28.37
2017-08-15T09:21:59.896Z,28.40
2017-08-15T09:24:28.255Z,28.52
2017-08-15T09:26:56.939Z,28.46
2017-08-15T09:29:25.361Z,28.46
2017-08-15T09:31:53.731Z,28.38
2017-08-15T09:34:22.711Z,28.38
2017-08-15T09:36:51.186Z,29.01
2017-08-15T09:39:19.547Z,29.36
2017-08-15T09:41:48.336Z,29.46
2017-08-15T09:44:16.818Z,29.97
2017-08-15T09:46:45.444Z,29.70
2017-08-15T09:49:14.404Z,29.84
2017-08-15T09:51:42.760Z,29.85
2017-08-15T09:54:11.130Z,29.79
2017-08-15T09:56:40.240Z,29.73
2017-08-15T09:59:09.486Z,30.21
2017-08-15T10:01:37.883Z,29.91
2017-08-15T10:04:06.673Z,29.93
2017-08-15T10:06:35.098Z,29.87
2017-08-15T10:09:03.474Z,29.93
2017-08-15T10:11:32.153Z,30.23
2017-08-15T10:14:00.572Z,29.93
2017-08-15T10:16:29.002Z,30.23
2017-08-15T10:18:57.812Z,30.49
2017-08-15T10:21:26.220Z,30.64
2017-08-15T10:23:54.600Z,30.43
2017-08-15T10:26:23.475Z,30.79
2017-08-15T10:28:51.845Z,31.30
2017-08-15T10:31:20.229Z,31.82
2017-08-15T10:33:48.974Z,32.47
2017-08-15T10:36:18.118Z,32.74
2017-08-15T10:38:46.485Z,31.79
2017-08-15T10:41:15.306Z,31.43
2017-08-15T10:43:43.683Z,31.00
2017-08-15T10:46:12.048Z,31.67
2017-08-15T10:48:40.833Z,31.54
2017-08-15T10:51:09.239Z,31.58
2017-08-15T10:53:37.609Z,31.57
2017-08-15T10:56:06.468Z,31.52
2017-08-15T10:58:34.840Z,31.95
2017-08-15T11:01:03.217Z,32.07
2017-08-15T11:03:32.099Z,31.98
2017-08-15T11:06:00.420Z,31.86
2017-08-15T11:08:28.786Z,31.36
2017-08-15T11:10:57.424Z,31.30
2017-08-15T11:13:26.564Z,31.12
2017-08-15T11:15:54.959Z,30.87
2017-08-15T11:18:23.584Z,31.28
2017-08-15T11:20:51.920Z,31.75
2017-08-15T11:23:20.299Z,32.21
2017-08-15T11:25:49.265Z,32.00
2017-08-15T11:28:17.663Z,31.48
2017-08-15T11:30:46.056Z,31.81
2017-08-15T11:33:14.754Z,32.17
2017-08-15T11:35:43.107Z,31.99
2017-08-15T11:38:11.479Z,31.94
2017-08-15T11:40:40.374Z,32.05
2017-08-15T11:43:08.735Z,33.13
2017-08-15T11:45:37.093Z,33.47
2017-08-15T11:48:06.511Z,33.67
2017-08-15T11:50:34.928Z,33.72
2017-08-15T11:53:03.299Z,33.06
2017-08-15T11:55:32.088Z,33.15
2017-08-15T11:58:00.461Z,33.19
2017-08-15T12:00:28.823Z,33.55
2017-08-15T12:02:57.608Z,34.56
2017-08-15T12:05:26.805Z,34.78
2017-08-15T12:07:55.740Z,34.46
2017-08-15T12:10:24.673Z,34.09
2017-08-15T12:12:53.050Z,33.81
2017-08-15T12:15:21.412Z,33.69
2017-08-15T12:17:50.466Z,34.06
2017-08-15T12:20:19.546Z,33.83
2017-08-15T12:22:48.509Z,33.79
2017-08-15T12:25:17.341Z,32.84
2017-08-15T12:27:46.232Z,32.11
2017-08-15T12:30:14.911Z,31.54
2017-08-15T12:32:44.249Z,31.30
2017-08-15T12:35:12.690Z,31.82
2017-08-15T12:37:41.043Z,31.36
2017-08-15T12:40:09.690Z,31.64
2017-08-15T12:42:38.041Z,31.79
2017-08-15T12:45:06.406Z,32.01
2017-08-15T12:47:35.113Z,32.49
2017-08-15T12:50:03.492Z,32.83
2017-08-15T12:52:31.912Z,32.21
2017-08-15T12:55:01.584Z,32.17
2017-08-15T12:57:29.922Z,31.93
2017-08-15T12:59:58.342Z,32.22
2017-08-15T13:02:27.054Z,32.28
2017-08-15T13:04:55.432Z,31.82
2017-08-15T13:07:23.794Z,31.56
2017-08-15T13:09:52.694Z,31.66
2017-08-15T13:12:21.073Z,32.35
2017-08-15T13:14:49.549Z,32.97
2017-08-15T13:17:18.550Z,32.54
2017-08-15T13:19:46.936Z,32.03
2017-08-15T13:22:15.371Z,31.77
2017-08-15T13:24:45.810Z,31.93
2017-08-15T13:27:14.158Z,31.77
2017-08-15T13:29:42.552Z,32.03
2017-08-15T13:32:11.265Z,31.65
2017-08-15T13:34:39.631Z,31.40
2017-08-15T13:37:08.020Z,31.31
2017-08-15T13:39:37.119Z,31.75
2017-08-15T13:42:05.482Z,31.73
2017-08-15T13:44:33.835Z,31.63
2017-08-15T13:47:02.691Z,31.36
2017-08-15T13:49:31.053Z,31.51
2017-08-15T13:51:59.388Z,31.47
2017-08-15T13:54:28.222Z,31.55
2017-08-15T13:56:56.603Z,31.52
2017-08-15T13:59:24.958Z,31.63
2017-08-15T14:01:53.783Z,31.74
2017-08-15T14:04:22.138Z,31.80
2017-08-15T14:06:50.495Z,31.35
2017-08-15T14:09:19.343Z,31.06
2017-08-15T14:11:47.747Z,31.07
2017-08-15T14:14:16.116Z,31.15
2017-08-15T14:16:44.886Z,31.14
2017-08-15T14:19:13.255Z,31.08
2017-08-15T14:21:41.697Z,31.42
2017-08-15T14:24:10.491Z,31.64
2017-08-15T14:26:38.845Z,31.40
2017-08-15T14:29:07.212Z,31.12
2017-08-15T14:31:35.940Z,31.23
2017-08-15T14:34:04.279Z,31.50
2017-08-15T14:36:32.649Z,31.75
2017-08-15T14:39:01.394Z,31.47
2017-08-15T14:41:29.767Z,31.63
2017-08-15T14:43:58.150Z,31.99
2017-08-15T14:46:27.151Z,32.05
2017-08-15T14:48:55.527Z,31.81
2017-08-15T14:51:23.937Z,32.00
2017-08-15T14:53:52.619Z,31.71
2017-08-15T14:56:21.000Z,31.62
2017-08-15T14:58:49.408Z,31.79
2017-08-15T15:01:18.055Z,31.78
2017-08-15T15:03:46.443Z,31.03
2017-08-15T15:06:14.819Z,31.01
2017-08-15T15:08:43.708Z,30.93
2017-08-15T15:11:12.057Z,30.55
2017-08-15T15:13:40.409Z,30.37
2017-08-15T15:16:09.331Z,30.46
2017-08-15T15:18:37.702Z,30.59
2017-08-15T15:21:06.058Z,30.54
2017-08-15T15:23:34.833Z,31.03
2017-08-15T15:26:03.200Z,31.53
2017-08-15T15:28:31.595Z,31.95
2017-08-15T15:31:00.590Z,31.82
2017-08-15T15:33:28.964Z,31.72
2017-08-15T15:35:57.352Z,31.95
2017-08-15T15:38:26.305Z,31.50
2017-08-15T15:40:54.701Z,31.49
2017-08-15T15:43:23.080Z,31.54
2017-08-15T15:45:52.853Z,31.44
2017-08-15T15:48:21.244Z,31.63
2017-08-15T15:50:49.604Z,31.79
2017-08-15T15:53:18.410Z,31.71
2017-08-15T15:55:46.785Z,31.67
2017-08-15T15:58:15.145Z,31.16
2017-08-15T16:00:43.848Z,30.96
2017-08-15T16:03:12.211Z,30.98
2017-08-15T16:05:40.577Z,30.82
2017-08-15T16:08:09.421Z,31.04
2017-08-15T16:10:37.805Z,31.35
2017-08-15T16:13:06.160Z,31.39
2017-08-15T16:15:34.974Z,31.42
2017-08-15T16:18:03.351Z,31.36
2017-08-15T16:20:31.699Z,31.04
2017-08-15T16:23:00.352Z,30.86
2017-08-15T16:25:28.713Z,30.83
2017-08-15T16:27:57.102Z,30.80
2017-08-15T16:30:26.053Z,30.71
2017-08-15T16:32:54.409Z,30.81
2017-08-15T16:35:22.780Z,30.41
2017-08-15T16:37:51.736Z,30.66
2017-08-15T16:40:20.110Z,30.70
2017-08-15T16:42:48.480Z,30.66
2017-08-15T16:45:17.404Z,30.62
2017-08-15T16:47:45.780Z,30.60
2017-08-15T16:50:14.160Z,30.75
2017-08-15T16:52:42.849Z,30.32
2017-08-15T16:55:11.284Z,30.37
2017-08-15T16:57:39.639Z,30.40
2017-08-15T17:00:08.429Z,30.18
2017-08-15T17:02:36.935Z,29.95
2017-08-15T17:05:05.366Z,29.60
2017-08-15T17:07:34.288Z,29.63
2017-08-15T17:10:02.706Z,29.66
2017-08-15T17:12:31.176Z,29.52
2017-08-15T17:14:59.950Z,29.58
2017-08-15T17:17:28.340Z,29.72
2017-08-15T17:19:56.698Z,29.47
2017-08-15T17:22:25.460Z,29.60
2017-08-15T17:24:54.587Z,29.67
2017-08-15T17:27:22.940Z,29.76
2017-08-15T17:29:51.594Z,29.83
2017-08-15T17:32:19.948Z,29.70
2017-08-15T17:34:48.338Z,29.76
2017-08-15T17:37:17.299Z,29.75
2017-08-15T17:39:45.688Z,29.58
2017-08-15T17:42:14.022Z,29.44
2017-08-15T17:44:43.178Z,29.29
2017-08-15T17:47:11.559Z,29.36
2017-08-15T17:49:39.915Z,29.20
2017-08-15T17:52:08.663Z,28.78
2017-08-15T17:54:37.040Z,28.86
2017-08-15T17:57:05.391Z,28.94
2017-08-15T17:59:34.061Z,28.79
2017-08-15T18:02:02.507Z,28.72
2017-08-15T18:04:30.864Z,28.72
2017-08-15T18:06:59.751Z,28.78
2017-08-15T18:09:28.121Z,28.84
2017-08-15T18:11:56.507Z,28.83
2017-08-15T18:14:25.343Z,28.78
2017-08-15T18:16:53.721Z,28.68
2017-08-15T18:19:22.116Z,28.75
2017-08-15T18:21:50.797Z,28.76
2017-08-15T18:24:19.127Z,28.76
2017-08-15T18:26:47.539Z,27.80
2017-08-15T18:29:16.460Z,27.08
2017-08-15T18:31:44.838Z,26.18
2017-08-15T18:34:13.249Z,25.66
2017-08-15T18:36:41.951Z,25.65
2017-08-15T18:39:10.318Z,25.18
2017-08-15T18:41:38.687Z,24.72
2017-08-15T18:44:07.565Z,24.80
2017-08-15T18:46:35.928Z,24.59
2017-08-15T18:49:04.286Z,24.52
2017-08-15T18:51:33.129Z,24.55
2017-08-15T18:54:01.482Z,24.55
2017-08-15T18:56:29.848Z,24.54
2017-08-15T18:58:58.650Z,24.79
2017-08-15T19:01:27.009Z,24.56
2017-08-15T19:03:55.434Z,24.53
2017-08-15T19:06:24.303Z,24.71
2017-08-15T19:08:52.677Z,24.64
2017-08-15T19:11:21.051Z,24.81
2017-08-15T19:13:49.834Z,24.71
2017-08-15T19:16:18.560Z,24.78
2017-08-15T19:18:46.925Z,24.61
2017-08-15T19:21:15.582Z,24.57
2017-08-15T19:23:43.931Z,24.49
2017-08-15T19:26:13.062Z,24.31
2017-08-15T19:28:41.878Z,24.31
2017-08-15T19:31:10.258Z,24.29
2017-08-15T19:33:38.682Z,24.31
2017-08-15T19:36:07.436Z,24.48
2017-08-15T19:38:35.875Z,24.56
2017-08-15T19:41:04.265Z,24.64
2017-08-15T19:43:33.152Z,24.56
2017-08-15T19:46:01.622Z,24.56
2017-08-15T19:48:30.030Z,24.80
2017-08-15T19:50:58.731Z,24.85
2017-08-15T19:53:27.177Z,24.76
2017-08-15T19:55:55.561Z,24.68
2017-08-15T19:58:24.410Z,24.69
2017-08-15T20:00:52.796Z,24.53
2017-08-15T20:03:21.157Z,24.18
2017-08-15T20:05:49.792Z,23.78
2017-08-15T20:08:18.174Z,23.73
2017-08-15T20:10:46.550Z,23.64
2017-08-15T20:13:15.410Z,23.75
2017-08-15T20:15:44.568Z,23.72
2017-08-15T20:18:12.953Z,23.77
2017-08-15T20:20:41.741Z,23.56
2017-08-15T20:23:10.119Z,23.54
2017-08-15T20:25:38.499Z,23.60
2017-08-15T20:28:07.445Z,23.41
2017-08-15T20:30:35.881Z,23.24
2017-08-15T20:33:04.276Z,23.36
2017-08-15T20:35:32.973Z,23.38
2017-08-15T20:38:01.361Z,23.33
2017-08-15T20:40:29.716Z,23.58
2017-08-15T20:42:59.366Z,23.64
2017-08-15T20:45:27.713Z,23.70
2017-08-15T20:47:56.050Z,23.65
2017-08-15T20:50:24.798Z,23.58
2017-08-15T20:52:53.125Z,23.54
2017-08-15T20:55:21.461Z,23.84
2017-08-15T20:57:50.175Z,23.70
2017-08-15T21:00:18.529Z,23.91
2017-08-15T21:02:46.891Z,23.83
2017-08-15T21:05:16.749Z,23.84
2017-08-15T21:07:45.106Z,23.82
2017-08-15T21:10:13.480Z,23.59
2017-08-15T21:12:42.181Z,23.65
2017-08-15T21:15:10.539Z,23.86
2017-08-15T21:17:38.901Z,23.91
2017-08-15T21:20:07.587Z,23.96
2017-08-15T21:22:36.119Z,23.81
2017-08-15T21:25:04.497Z,23.80
2017-08-15T21:27:33.481Z,23.85
2017-08-15T21:30:01.860Z,23.97
2017-08-15T21:32:30.198Z,23.90
2017-08-15T21:34:59.137Z,23.96
2017-08-15T21:37:27.497Z,23.85
2017-08-15T21:39:55.856Z,23.70
2017-08-15T21:42:24.525Z,23.44
2017-08-15T21:44:52.874Z,23.35
2017-08-15T21:47:21.244Z,23.24
2017-08-15T21:49:50.468Z,23.24
2017-08-15T21:52:18.896Z,22.95
2017-08-15T21:54:47.251Z,22.97
2017-08-15T21:57:16.707Z,23.04
2017-08-15T21:59:45.058Z,22.98
2017-08-15T22:02:19.027Z,22.89
2017-08-15T22:04:47.388Z,22.49
2017-08-15T22:07:15.763Z,22.27
2017-08-15T22:09:44.622Z,22.22
2017-08-15T22:12:12.991Z,22.07
2017-08-15T22:14:42.133Z,22.03
2017-08-15T22:17:10.763Z,22.02
2017-08-15T22:19:39.950Z,21.92
2017-08-15T22:22:08.308Z,21.87
2017-08-15T22:24:37.179Z,21.74
2017-08-15T22:27:05.541Z,21.76
2017-08-15T22:29:33.890Z,21.56
2017-08-15T22:32:03.108Z,21.81
2017-08-15T22:34:31.467Z,21.79
2017-08-15T22:36:59.848Z,21.72
2017-08-15T22:39:29.450Z,21.70
2017-08-15T22:41:57.807Z,21.84
2017-08-15T22:44:27.003Z,21.89
2017-08-15T22:46:55.641Z,22.18
2017-08-15T22:49:24.023Z,22.40
2017-08-15T22:51:52.392Z,22.51
2017-08-15T22:54:21.180Z,22.52
2017-08-15T22:56:49.531Z,22.54
2017-08-15T22:59:17.878Z,22.43
2017-08-15T23:01:46.657Z,22.52
2017-08-15T23:04:15.042Z,22.66
2017-08-15T23:06:43.425Z,22.52
2017-08-15T23:09:12.297Z,22.54
2017-08-15T23:11:40.675Z,22.58
2017-08-15T23:14:09.067Z,22.59
2017-08-15T23:16:38.046Z,22.65
2017-08-15T23:19:07.139Z,22.61
2017-08-15T23:21:35.504Z,22.49
2017-08-15T23:24:04.205Z,22.52
2017-08-15T23:26:32.584Z,22.56
2017-08-15T23:29:00.950Z,22.39
2017-08-15T23:31:29.655Z,22.37
2017-08-15T23:33:57.987Z,22.17
2017-08-15T23:36:27.116Z,22.23
2017-08-15T23:38:56.334Z,22.36
2017-08-15T23:41:24.726Z,22.24
2017-08-15T23:43:53.092Z,22.19
2017-08-15T23:46:21.978Z,22.02
2017-08-15T23:48:50.344Z,22.02
2017-08-15T23:51:18.691Z,21.88
2017-08-15T23:53:47.412Z,21.71
2017-08-15T23:56:15.783Z,21.90
2017-08-15T23:58:44.158Z,21.81
